F/V Sextant — FVNU — position and weather

sailwx.info

Track history (hours):
 
Tides and Currents Weather Stations Pressure Air Temp Water Temp Dewpoint Dewpoint Depression Visibility Wind Speed Wind Dir Waves Ship Positions

F/V Sextant

Last reported at 2017-Sep-20 20:53 UTC. Time now 2017-Sep-20 23:51 UTC.
Position N 47°28' W 004°11'.

Length 15 m; draft 3 m.

Type: Fishing. MMSI: 228919000.

Date/timePositionNaut miles runAvg speedWind from/ knotsBaromVisibWave heightAir tempDewpointWater temp
2017-Sep-20 20:53N 47°28' W 004°11'1 3.6
2017-Sep-20 20:30N 47°27' W 004°09'2 3.3
2017-Sep-20 19:58N 47°25' W 004°08'2 3.3
2017-Sep-20 19:30N 47°24' W 004°08'2 3.3
2017-Sep-20 19:00N 47°22' W 004°07'0 0.1
2017-Sep-20 15:58N 47°22' W 004°07'1 2.1
2017-Sep-20 15:30N 47°21' W 004°06'2 3.5
2017-Sep-20 15:00N 47°21' W 004°08'3 3.1
2017-Sep-20 14:00N 47°18' W 004°10'3 1.5
2017-Sep-20 12:02N 47°20' W 004°08'0 2.9
2017-Sep-20 11:52N 47°21' W 004°07'1 3.1
2017-Sep-20 11:30N 47°22' W 004°06'3 2.8
2017-Sep-20 10:28N 47°25' W 004°05'1 2.9
2017-Sep-20 09:57N 47°25' W 004°07'1 3.4
2017-Sep-20 09:30N 47°25' W 004°09'2 3.5
2017-Sep-20 09:00N 47°23' W 004°10'2 1.7
2017-Sep-20 07:37N 47°24' W 004°08'0 3.1
2017-Sep-20 07:28N 47°24' W 004°08'2 3.1
2017-Sep-20 06:55N 47°22' W 004°09'3 3.3
2017-Sep-20 06:07N 47°20' W 004°11'1 3.4
2017-Sep-20 05:51N 47°19' W 004°12'1 3.1
2017-Sep-20 05:24N 47°18' W 004°12'1 3.1
2017-Sep-20 04:58N 47°17' W 004°11'9 2.4
2017-Sep-20 01:20N 47°25' W 004°07'2 3.4
2017-Sep-20 00:46N 47°23' W 004°08'1 3.7
2017-Sep-20 00:30N 47°22' W 004°09'2 1.1
2017-Sep-19 22:38N 47°24' W 004°09'1 3.4
2017-Sep-19 22:26N 47°24' W 004°08'2 3.1
2017-Sep-19 21:43N 47°22' W 004°09'1 3.5
2017-Sep-19 21:29N 47°22' W 004°10'2 3.4
2017-Sep-19 20:46N 47°19' W 004°11'2 3.3
2017-Sep-19 20:13N 47°18' W 004°12'3 3.1
2017-Sep-19 19:21N 47°15' W 004°11'1 4.1
2017-Sep-19 19:00N 47°15' W 004°09'0 0.5
2017-Sep-19 18:26N 47°15' W 004°09'14 1.6
2017-Sep-19 09:32N 47°28' W 004°04'1 0.3
2017-Sep-19 06:30N 47°29' W 004°05'3 2.5
2017-Sep-19 05:26N 47°28' W 004°09'18 7.2
2017-Sep-19 02:58N 47°46' W 004°09'4 0.2
2017-Sep-18 07:48N 47°50' W 004°10'  
2017-Sep-16 01:54N 47°50' W 004°10'9 6.4
2017-Sep-16 00:33N 47°50' W 003°58'2 1.2
2017-Sep-15 22:38N 47°48' W 003°59'8 8.3
2017-Sep-15 21:38N 47°41' W 004°07'12 1.2
2017-Sep-15 11:06N 47°29' W 004°04'1 0.4
2017-Sep-15 08:03N 47°30' W 004°03'1 3.4
2017-Sep-15 07:50N 47°29' W 004°02'1 3.3
2017-Sep-15 07:29N 47°28' W 004°02'20 3.7
2017-Sep-15 01:58N 47°48' W 003°59'3 1.6
2017-Sep-15 00:10N 47°50' W 003°56'2 6.8
2017-Sep-14 23:53N 47°48' W 003°56'3 6.9
2017-Sep-14 23:27N 47°46' W 003°55'3 6.8
2017-Sep-14 22:58N 47°42' W 003°55'3 6.5
2017-Sep-14 22:26N 47°39' W 003°56'3 7.0
2017-Sep-14 22:00N 47°36' W 003°58'4 7.4
2017-Sep-14 21:29N 47°33' W 004°01'5 2.0
2017-Sep-14 19:02N 47°28' W 004°03'0 3.4
2017-Sep-14 18:59N 47°28' W 004°02'1 2.2
2017-Sep-14 18:30N 47°29' W 004°04'2 1.3
2017-Sep-14 17:05N 47°31' W 004°05'0 3.2
2017-Sep-14 17:00N 47°31' W 004°05'2 3.3
2017-Sep-14 16:30N 47°30' W 004°03'2 3.2
2017-Sep-14 16:01N 47°28' W 004°02'2 3.3
2017-Sep-14 15:30N 47°28' W 004°05'3 1.3
2017-Sep-14 13:34N 47°31' W 004°05'1 3.1
2017-Sep-14 13:10N 47°30' W 004°04'1 3.2
2017-Sep-14 13:00N 47°30' W 004°03'2 3.0
2017-Sep-14 12:29N 47°28' W 004°02'2 3.4
2017-Sep-14 12:00N 47°28' W 004°05'10 1.2
2017-Sep-14 03:58N 47°37' W 003°59'7 7.2
2017-Sep-14 02:58N 47°44' W 003°55'8 3.3
2017-Sep-14 00:38N 47°51' W 003°56'1 7.6
2017-Sep-14 00:28N 47°50' W 003°56'4 7.9
2017-Sep-13 23:58N 47°46' W 003°55'4 7.8
2017-Sep-13 23:30N 47°43' W 003°55'4 7.4
2017-Sep-13 23:00N 47°39' W 003°55'4 7.6
2017-Sep-13 22:30N 47°35' W 003°56'3 6.6
2017-Sep-13 22:00N 47°32' W 003°57'2 4.9
2017-Sep-13 21:30N 47°29' W 003°57'3 2.6
2017-Sep-13 20:13N 47°28' W 004°02'10 0.2
2017-Sep-12 01:33N 47°34' W 004°14'5 8.0
2017-Sep-12 00:53N 47°39' W 004°12'11 8.2
2017-Sep-11 23:33N 47°50' W 004°08'  
Track history (hours):
 
Tides and Currents Weather Stations Pressure Air Temp Water Temp Dewpoint Dewpoint Depression Visibility Wind Speed Wind Dir Waves Ship Positions

F/V Sextant

Last reported at 2017-Sep-20 20:53 UTC. Time now 2017-Sep-20 23:51 UTC.
Position N 47°28' W 004°11'.

Length 15 m; draft 3 m.

Type: Fishing. MMSI: 228919000.

Date/timePositionNaut miles runAvg speedWind from/ knotsBaromVisibWave heightAir tempDewpointWater temp
2017-Sep-20 20:53N 47°28' W 004°11'1 3.6
2017-Sep-20 20:30N 47°27' W 004°09'2 3.3
2017-Sep-20 19:58N 47°25' W 004°08'2 3.3
2017-Sep-20 19:30N 47°24' W 004°08'2 3.3
2017-Sep-20 19:00N 47°22' W 004°07'0 0.1
2017-Sep-20 15:58N 47°22' W 004°07'1 2.1
2017-Sep-20 15:30N 47°21' W 004°06'2 3.5
2017-Sep-20 15:00N 47°21' W 004°08'3 3.1
2017-Sep-20 14:00N 47°18' W 004°10'3 1.5
2017-Sep-20 12:02N 47°20' W 004°08'0 2.9
2017-Sep-20 11:52N 47°21' W 004°07'1 3.1
2017-Sep-20 11:30N 47°22' W 004°06'3 2.8
2017-Sep-20 10:28N 47°25' W 004°05'1 2.9
2017-Sep-20 09:57N 47°25' W 004°07'1 3.4
2017-Sep-20 09:30N 47°25' W 004°09'2 3.5
2017-Sep-20 09:00N 47°23' W 004°10'2 1.7
2017-Sep-20 07:37N 47°24' W 004°08'0 3.1
2017-Sep-20 07:28N 47°24' W 004°08'2 3.1
2017-Sep-20 06:55N 47°22' W 004°09'3 3.3
2017-Sep-20 06:07N 47°20' W 004°11'1 3.4
2017-Sep-20 05:51N 47°19' W 004°12'1 3.1
2017-Sep-20 05:24N 47°18' W 004°12'1 3.1
2017-Sep-20 04:58N 47°17' W 004°11'9 2.4
2017-Sep-20 01:20N 47°25' W 004°07'2 3.4
2017-Sep-20 00:46N 47°23' W 004°08'1 3.7
2017-Sep-20 00:30N 47°22' W 004°09'2 1.1
2017-Sep-19 22:38N 47°24' W 004°09'1 3.4
2017-Sep-19 22:26N 47°24' W 004°08'2 3.1
2017-Sep-19 21:43N 47°22' W 004°09'1 3.5
2017-Sep-19 21:29N 47°22' W 004°10'2 3.4
2017-Sep-19 20:46N 47°19' W 004°11'2 3.3
2017-Sep-19 20:13N 47°18' W 004°12'3 3.1
2017-Sep-19 19:21N 47°15' W 004°11'1 4.1
2017-Sep-19 19:00N 47°15' W 004°09'0 0.5
2017-Sep-19 18:26N 47°15' W 004°09'14 1.6
2017-Sep-19 09:32N 47°28' W 004°04'1 0.3
2017-Sep-19 06:30N 47°29' W 004°05'3 2.5
2017-Sep-19 05:26N 47°28' W 004°09'18 7.2
2017-Sep-19 02:58N 47°46' W 004°09'4 0.2
2017-Sep-18 07:48N 47°50' W 004°10'  
2017-Sep-16 01:54N 47°50' W 004°10'9 6.4
2017-Sep-16 00:33N 47°50' W 003°58'2 1.2
2017-Sep-15 22:38N 47°48' W 003°59'8 8.3
2017-Sep-15 21:38N 47°41' W 004°07'12 1.2
2017-Sep-15 11:06N 47°29' W 004°04'1 0.4
2017-Sep-15 08:03N 47°30' W 004°03'1 3.4
2017-Sep-15 07:50N 47°29' W 004°02'1 3.3
2017-Sep-15 07:29N 47°28' W 004°02'20 3.7
2017-Sep-15 01:58N 47°48' W 003°59'3 1.6
2017-Sep-15 00:10N 47°50' W 003°56'2 6.8
2017-Sep-14 23:53N 47°48' W 003°56'3 6.9
2017-Sep-14 23:27N 47°46' W 003°55'3 6.8
2017-Sep-14 22:58N 47°42' W 003°55'3 6.5
2017-Sep-14 22:26N 47°39' W 003°56'3 7.0
2017-Sep-14 22:00N 47°36' W 003°58'4 7.4
2017-Sep-14 21:29N 47°33' W 004°01'5 2.0
2017-Sep-14 19:02N 47°28' W 004°03'0 3.4
2017-Sep-14 18:59N 47°28' W 004°02'1 2.2
2017-Sep-14 18:30N 47°29' W 004°04'2 1.3
2017-Sep-14 17:05N 47°31' W 004°05'0 3.2
2017-Sep-14 17:00N 47°31' W 004°05'2 3.3
2017-Sep-14 16:30N 47°30' W 004°03'2 3.2
2017-Sep-14 16:01N 47°28' W 004°02'2 3.3
2017-Sep-14 15:30N 47°28' W 004°05'3 1.3
2017-Sep-14 13:34N 47°31' W 004°05'1 3.1
2017-Sep-14 13:10N 47°30' W 004°04'1 3.2
2017-Sep-14 13:00N 47°30' W 004°03'2 3.0
2017-Sep-14 12:29N 47°28' W 004°02'2 3.4
2017-Sep-14 12:00N 47°28' W 004°05'10 1.2
2017-Sep-14 03:58N 47°37' W 003°59'7 7.2
2017-Sep-14 02:58N 47°44' W 003°55'8 3.3
2017-Sep-14 00:38N 47°51' W 003°56'1 7.6
2017-Sep-14 00:28N 47°50' W 003°56'4 7.9
2017-Sep-13 23:58N 47°46' W 003°55'4 7.8
2017-Sep-13 23:30N 47°43' W 003°55'4 7.4
2017-Sep-13 23:00N 47°39' W 003°55'4 7.6
2017-Sep-13 22:30N 47°35' W 003°56'3 6.6
2017-Sep-13 22:00N 47°32' W 003°57'2 4.9
2017-Sep-13 21:30N 47°29' W 003°57'3 2.6
2017-Sep-13 20:13N 47°28' W 004°02'10 0.2
2017-Sep-12 01:33N 47°34' W 004°14'5 8.0
2017-Sep-12 00:53N 47°39' W 004°12'11 8.2
2017-Sep-11 23:33N 47°50' W 004°08'  

Dump ship's entire track history